Terminal Aerodrome Forecast
Issued by NWS

Home | Current Version | Previous Version | Text Only | Print | Product List | Glossary Off
Versions: 1 2 3 4 5 6 7 8 9 10 11 12 13 14 15 16 17 18

000
FTUS43 KICT 201241 AAA
TAFCNU
TAF AMD
KCNU 201241Z 2013/2112 35012G18KT P6SM -RA VCTS BKN045 BKN060CB
     FM201400 35010KT P6SM VCSH SCT070 BKN100
     FM201800 36010KT P6SM BKN110
     FM202100 36009KT P6SM SCT120
     FM210700 05007KT P6SM BKN090=

USA.gov is the U.S. government's official web portal to all federal, state and local government web resources and services.